sensor_id;sensor_type;location;lat;lon;timestamp;P1;durP1;ratioP1;P2;durP2;ratioP2
14052;SDS011;7101;51.600;7.310;2022-08-14T00:01:04;7.03;;;5.05;;
14052;SDS011;7101;51.600;7.310;2022-08-14T00:03:31;6.50;;;4.97;;
14052;SDS011;7101;51.600;7.310;2022-08-14T00:05:59;13.48;;;5.10;;
14052;SDS011;7101;51.600;7.310;2022-08-14T00:08:27;7.03;;;4.78;;
14052;SDS011;7101;51.600;7.310;2022-08-14T00:10:54;8.68;;;4.75;;
14052;SDS011;7101;51.600;7.310;2022-08-14T00:13:22;10.25;;;5.25;;
14052;SDS011;7101;51.600;7.310;2022-08-14T00:15:54;8.52;;;5.28;;
14052;SDS011;7101;51.600;7.310;2022-08-14T00:18:23;10.07;;;5.25;;
14052;SDS011;7101;51.600;7.310;2022-08-14T00:20:52;9.57;;;5.20;;
14052;SDS011;7101;51.600;7.310;2022-08-14T00:23:21;12.07;;;5.15;;
14052;SDS011;7101;51.600;7.310;2022-08-14T00:25:48;6.32;;;5.40;;
14052;SDS011;7101;51.600;7.310;2022-08-14T00:28:18;7.30;;;5.20;;
14052;SDS011;7101;51.600;7.310;2022-08-14T00:30:50;6.00;;;5.30;;
14052;SDS011;7101;51.600;7.310;2022-08-14T00:33:19;6.65;;;4.95;;
14052;SDS011;7101;51.600;7.310;2022-08-14T00:35:46;5.35;;;4.85;;
14052;SDS011;7101;51.600;7.310;2022-08-14T00:38:13;8.40;;;5.18;;
14052;SDS011;7101;51.600;7.310;2022-08-14T00:40:40;6.28;;;5.53;;
14052;SDS011;7101;51.600;7.310;2022-08-14T00:43:07;10.00;;;5.65;;
14052;SDS011;7101;51.600;7.310;2022-08-14T00:45:35;10.02;;;5.45;;
14052;SDS011;7101;51.600;7.310;2022-08-14T00:48:02;6.97;;;5.47;;
14052;SDS011;7101;51.600;7.310;2022-08-14T00:50:31;6.75;;;6.03;;
14052;SDS011;7101;51.600;7.310;2022-08-14T00:52:58;7.03;;;5.88;;
14052;SDS011;7101;51.600;7.310;2022-08-14T00:55:26;6.47;;;5.80;;
14052;SDS011;7101;51.600;7.310;2022-08-14T00:57:55;6.22;;;5.63;;
14052;SDS011;7101;51.600;7.310;2022-08-14T01:00:41;7.25;;;5.45;;
14052;SDS011;7101;51.600;7.310;2022-08-14T01:03:08;6.20;;;5.50;;
14052;SDS011;7101;51.600;7.310;2022-08-14T01:05:36;7.22;;;5.25;;
14052;SDS011;7101;51.600;7.310;2022-08-14T01:08:04;6.20;;;5.60;;
14052;SDS011;7101;51.600;7.310;2022-08-14T01:10:31;8.27;;;6.30;;
14052;SDS011;7101;51.600;7.310;2022-08-14T01:13:17;10.93;;;5.90;;
14052;SDS011;7101;51.600;7.310;2022-08-14T01:15:45;6.93;;;5.68;;
14052;SDS011;7101;51.600;7.310;2022-08-14T01:18:14;7.03;;;5.80;;
14052;SDS011;7101;51.600;7.310;2022-08-14T01:21:11;8.18;;;6.10;;
14052;SDS011;7101;51.600;7.310;2022-08-14T01:23:41;8.85;;;6.15;;
14052;SDS011;7101;51.600;7.310;2022-08-14T01:26:09;6.95;;;6.30;;
14052;SDS011;7101;51.600;7.310;2022-08-14T01:28:37;9.27;;;5.82;;
14052;SDS011;7101;51.600;7.310;2022-08-14T01:31:05;11.57;;;6.00;;
14052;SDS011;7101;51.600;7.310;2022-08-14T01:33:33;10.18;;;5.88;;
14052;SDS011;7101;51.600;7.310;2022-08-14T01:36:05;7.05;;;5.65;;
14052;SDS011;7101;51.600;7.310;2022-08-14T01:38:33;8.85;;;6.65;;
14052;SDS011;7101;51.600;7.310;2022-08-14T01:41:04;8.48;;;6.13;;
14052;SDS011;7101;51.600;7.310;2022-08-14T01:43:32;6.95;;;6.22;;
14052;SDS011;7101;51.600;7.310;2022-08-14T01:46:08;6.60;;;5.72;;
14052;SDS011;7101;51.600;7.310;2022-08-14T01:48:36;6.35;;;5.70;;
14052;SDS011;7101;51.600;7.310;2022-08-14T01:51:05;6.85;;;6.15;;
14052;SDS011;7101;51.600;7.310;2022-08-14T01:53:32;7.72;;;6.00;;
14052;SDS011;7101;51.600;7.310;2022-08-14T01:56:02;8.07;;;6.60;;
14052;SDS011;7101;51.600;7.310;2022-08-14T01:58:31;7.65;;;6.10;;
14052;SDS011;7101;51.600;7.310;2022-08-14T02:00:58;8.48;;;6.50;;
14052;SDS011;7101;51.600;7.310;2022-08-14T02:03:26;9.15;;;6.38;;
14052;SDS011;7101;51.600;7.310;2022-08-14T02:05:55;7.43;;;6.57;;
14052;SDS011;7101;51.600;7.310;2022-08-14T02:08:23;8.27;;;6.18;;
14052;SDS011;7101;51.600;7.310;2022-08-14T02:10:52;14.27;;;6.47;;
14052;SDS011;7101;51.600;7.310;2022-08-14T02:13:42;8.10;;;6.72;;
14052;SDS011;7101;51.600;7.310;2022-08-14T02:16:10;8.98;;;7.03;;
14052;SDS011;7101;51.600;7.310;2022-08-14T02:18:37;7.07;;;6.38;;
14052;SDS011;7101;51.600;7.310;2022-08-14T02:21:04;9.45;;;6.90;;
14052;SDS011;7101;51.600;7.310;2022-08-14T02:23:31;7.40;;;6.70;;
14052;SDS011;7101;51.600;7.310;2022-08-14T02:25:59;7.50;;;6.72;;
14052;SDS011;7101;51.600;7.310;2022-08-14T02:28:28;9.60;;;6.97;;
14052;SDS011;7101;51.600;7.310;2022-08-14T02:30:57;8.10;;;6.70;;
14052;SDS011;7101;51.600;7.310;2022-08-14T02:33:25;8.23;;;7.38;;
14052;SDS011;7101;51.600;7.310;2022-08-14T02:35:52;8.68;;;7.30;;
14052;SDS011;7101;51.600;7.310;2022-08-14T02:38:19;9.27;;;8.18;;
14052;SDS011;7101;51.600;7.310;2022-08-14T02:40:46;9.13;;;8.18;;
14052;SDS011;7101;51.600;7.310;2022-08-14T02:43:13;10.25;;;8.32;;
14052;SDS011;7101;51.600;7.310;2022-08-14T02:45:41;12.20;;;9.02;;
14052;SDS011;7101;51.600;7.310;2022-08-14T02:48:11;13.05;;;8.68;;
14052;SDS011;7101;51.600;7.310;2022-08-14T02:50:39;9.77;;;8.65;;
14052;SDS011;7101;51.600;7.310;2022-08-14T02:53:07;9.75;;;8.25;;
14052;SDS011;7101;51.600;7.310;2022-08-14T02:55:35;11.13;;;8.50;;
14052;SDS011;7101;51.600;7.310;2022-08-14T02:58:03;10.05;;;8.65;;
14052;SDS011;7101;51.600;7.310;2022-08-14T03:00:31;10.57;;;8.32;;
14052;SDS011;7101;51.600;7.310;2022-08-14T03:02:59;9.75;;;8.55;;
14052;SDS011;7101;51.600;7.310;2022-08-14T03:05:29;11.77;;;8.93;;
14052;SDS011;7101;51.600;7.310;2022-08-14T03:08:02;10.60;;;8.93;;
14052;SDS011;7101;51.600;7.310;2022-08-14T03:10:31;10.63;;;8.70;;
14052;SDS011;7101;51.600;7.310;2022-08-14T03:12:58;10.15;;;8.75;;
14052;SDS011;7101;51.600;7.310;2022-08-14T03:15:28;10.95;;;8.70;;
14052;SDS011;7101;51.600;7.310;2022-08-14T03:17:56;10.25;;;8.25;;
14052;SDS011;7101;51.600;7.310;2022-08-14T03:20:23;9.95;;;8.68;;
14052;SDS011;7101;51.600;7.310;2022-08-14T03:22:53;13.57;;;9.15;;
14052;SDS011;7101;51.600;7.310;2022-08-14T03:25:20;11.40;;;9.27;;
14052;SDS011;7101;51.600;7.310;2022-08-14T03:27:47;10.02;;;8.68;;
14052;SDS011;7101;51.600;7.310;2022-08-14T03:30:14;10.75;;;9.27;;
14052;SDS011;7101;51.600;7.310;2022-08-14T03:32:41;11.65;;;9.07;;
14052;SDS011;7101;51.600;7.310;2022-08-14T03:35:08;10.52;;;8.63;;
14052;SDS011;7101;51.600;7.310;2022-08-14T03:37:35;11.27;;;8.77;;
14052;SDS011;7101;51.600;7.310;2022-08-14T03:40:05;10.13;;;8.70;;
14052;SDS011;7101;51.600;7.310;2022-08-14T03:42:32;10.93;;;9.00;;
14052;SDS011;7101;51.600;7.310;2022-08-14T03:45:00;9.75;;;8.63;;
14052;SDS011;7101;51.600;7.310;2022-08-14T03:47:27;9.45;;;8.45;;
14052;SDS011;7101;51.600;7.310;2022-08-14T03:49:55;9.57;;;8.65;;
14052;SDS011;7101;51.600;7.310;2022-08-14T03:52:22;9.57;;;8.57;;
14052;SDS011;7101;51.600;7.310;2022-08-14T03:54:49;9.85;;;8.80;;
14052;SDS011;7101;51.600;7.310;2022-08-14T03:57:17;9.95;;;8.95;;
14052;SDS011;7101;51.600;7.310;2022-08-14T03:59:44;11.38;;;9.40;;
14052;SDS011;7101;51.600;7.310;2022-08-14T04:02:11;11.50;;;8.55;;
14052;SDS011;7101;51.600;7.310;2022-08-14T04:04:38;9.40;;;8.43;;
14052;SDS011;7101;51.600;7.310;2022-08-14T04:07:04;9.60;;;8.60;;
14052;SDS011;7101;51.600;7.310;2022-08-14T04:09:34;12.05;;;9.55;;
14052;SDS011;7101;51.600;7.310;2022-08-14T04:12:02;11.40;;;9.10;;
14052;SDS011;7101;51.600;7.310;2022-08-14T04:14:31;13.95;;;9.48;;
14052;SDS011;7101;51.600;7.310;2022-08-14T04:16:58;9.82;;;8.88;;
14052;SDS011;7101;51.600;7.310;2022-08-14T04:19:24;14.15;;;9.23;;
14052;SDS011;7101;51.600;7.310;2022-08-14T04:21:51;10.70;;;9.13;;
14052;SDS011;7101;51.600;7.310;2022-08-14T04:24:18;15.00;;;9.70;;
14052;SDS011;7101;51.600;7.310;2022-08-14T04:26:45;12.30;;;10.10;;
14052;SDS011;7101;51.600;7.310;2022-08-14T04:29:12;13.05;;;9.48;;
14052;SDS011;7101;51.600;7.310;2022-08-14T04:31:40;11.88;;;10.05;;
14052;SDS011;7101;51.600;7.310;2022-08-14T04:34:07;11.45;;;9.95;;
14052;SDS011;7101;51.600;7.310;2022-08-14T04:36:33;13.05;;;9.95;;
14052;SDS011;7101;51.600;7.310;2022-08-14T04:39:20;11.00;;;9.57;;
14052;SDS011;7101;51.600;7.310;2022-08-14T04:42:05;15.60;;;10.80;;
14052;SDS011;7101;51.600;7.310;2022-08-14T04:44:49;12.98;;;10.38;;
14052;SDS011;7101;51.600;7.310;2022-08-14T04:47:17;10.60;;;9.60;;
14052;SDS011;7101;51.600;7.310;2022-08-14T04:50:02;11.48;;;10.27;;
14052;SDS011;7101;51.600;7.310;2022-08-14T04:52:29;11.52;;;10.32;;
14052;SDS011;7101;51.600;7.310;2022-08-14T04:54:56;13.25;;;10.15;;
14052;SDS011;7101;51.600;7.310;2022-08-14T04:57:23;11.50;;;10.50;;
14052;SDS011;7101;51.600;7.310;2022-08-14T04:59:50;12.15;;;11.00;;
14052;SDS011;7101;51.600;7.310;2022-08-14T05:02:19;12.20;;;11.00;;
14052;SDS011;7101;51.600;7.310;2022-08-14T05:04:48;12.15;;;11.02;;
14052;SDS011;7101;51.600;7.310;2022-08-14T05:07:15;12.57;;;10.95;;
14052;SDS011;7101;51.600;7.310;2022-08-14T05:09:42;13.75;;;11.38;;
14052;SDS011;7101;51.600;7.310;2022-08-14T05:12:09;15.88;;;11.70;;
14052;SDS011;7101;51.600;7.310;2022-08-14T05:14:36;11.70;;;10.60;;
14052;SDS011;7101;51.600;7.310;2022-08-14T05:17:02;12.07;;;10.45;;
14052;SDS011;7101;51.600;7.310;2022-08-14T05:19:31;11.10;;;9.90;;
14052;SDS011;7101;51.600;7.310;2022-08-14T05:21:59;10.85;;;9.80;;
14052;SDS011;7101;51.600;7.310;2022-08-14T05:24:26;11.20;;;9.35;;
14052;SDS011;7101;51.600;7.310;2022-08-14T05:26:53;10.82;;;9.38;;
14052;SDS011;7101;51.600;7.310;2022-08-14T05:29:19;9.77;;;8.85;;
14052;SDS011;7101;51.600;7.310;2022-08-14T05:31:46;9.93;;;8.77;;
14052;SDS011;7101;51.600;7.310;2022-08-14T05:34:13;13.40;;;9.50;;
14052;SDS011;7101;51.600;7.310;2022-08-14T05:36:41;13.27;;;8.98;;
14052;SDS011;7101;51.600;7.310;2022-08-14T05:39:08;9.65;;;8.43;;
14052;SDS011;7101;51.600;7.310;2022-08-14T05:41:35;11.85;;;8.98;;
14052;SDS011;7101;51.600;7.310;2022-08-14T05:44:02;13.82;;;8.77;;
14052;SDS011;7101;51.600;7.310;2022-08-14T05:46:29;10.60;;;9.32;;
14052;SDS011;7101;51.600;7.310;2022-08-14T05:48:56;9.90;;;9.00;;
14052;SDS011;7101;51.600;7.310;2022-08-14T05:51:25;12.00;;;9.05;;
14052;SDS011;7101;51.600;7.310;2022-08-14T05:53:54;11.60;;;9.32;;
14052;SDS011;7101;51.600;7.310;2022-08-14T05:56:21;12.48;;;8.98;;
14052;SDS011;7101;51.600;7.310;2022-08-14T05:58:49;10.20;;;9.20;;
14052;SDS011;7101;51.600;7.310;2022-08-14T06:01:16;9.68;;;8.75;;
14052;SDS011;7101;51.600;7.310;2022-08-14T06:03:43;9.13;;;8.30;;
14052;SDS011;7101;51.600;7.310;2022-08-14T06:06:10;9.73;;;8.40;;
14052;SDS011;7101;51.600;7.310;2022-08-14T06:08:37;10.18;;;8.73;;
14052;SDS011;7101;51.600;7.310;2022-08-14T06:11:06;8.98;;;8.10;;
14052;SDS011;7101;51.600;7.310;2022-08-14T06:13:35;9.80;;;8.60;;
14052;SDS011;7101;51.600;7.310;2022-08-14T06:16:03;9.25;;;7.75;;
14052;SDS011;7101;51.600;7.310;2022-08-14T06:18:31;9.40;;;8.40;;
14052;SDS011;7101;51.600;7.310;2022-08-14T06:20:59;8.63;;;7.93;;
14052;SDS011;7101;51.600;7.310;2022-08-14T06:23:26;9.45;;;8.43;;
14052;SDS011;7101;51.600;7.310;2022-08-14T06:25:53;9.05;;;7.55;;
14052;SDS011;7101;51.600;7.310;2022-08-14T06:28:22;9.23;;;7.70;;
14052;SDS011;7101;51.600;7.310;2022-08-14T06:30:51;8.27;;;7.47;;
14052;SDS011;7101;51.600;7.310;2022-08-14T06:33:18;9.60;;;7.63;;
14052;SDS011;7101;51.600;7.310;2022-08-14T06:35:46;7.97;;;7.22;;
14052;SDS011;7101;51.600;7.310;2022-08-14T06:38:15;9.90;;;7.45;;
14052;SDS011;7101;51.600;7.310;2022-08-14T06:40:44;9.57;;;7.22;;
14052;SDS011;7101;51.600;7.310;2022-08-14T06:43:11;8.70;;;7.57;;
14052;SDS011;7101;51.600;7.310;2022-08-14T06:45:41;10.13;;;8.35;;
14052;SDS011;7101;51.600;7.310;2022-08-14T06:48:13;7.85;;;7.05;;
14052;SDS011;7101;51.600;7.310;2022-08-14T06:50:41;8.48;;;6.93;;
14052;SDS011;7101;51.600;7.310;2022-08-14T06:53:09;7.80;;;6.75;;
14052;SDS011;7101;51.600;7.310;2022-08-14T06:55:38;7.55;;;6.93;;
14052;SDS011;7101;51.600;7.310;2022-08-14T06:58:09;9.07;;;7.22;;
14052;SDS011;7101;51.600;7.310;2022-08-14T07:00:36;7.80;;;6.93;;
14052;SDS011;7101;51.600;7.310;2022-08-14T07:03:04;7.43;;;6.65;;
14052;SDS011;7101;51.600;7.310;2022-08-14T07:05:49;7.32;;;6.63;;
14052;SDS011;7101;51.600;7.310;2022-08-14T07:08:17;8.07;;;6.75;;
14052;SDS011;7101;51.600;7.310;2022-08-14T07:10:46;9.75;;;6.78;;
14052;SDS011;7101;51.600;7.310;2022-08-14T07:13:14;8.43;;;6.75;;
14052;SDS011;7101;51.600;7.310;2022-08-14T07:15:43;8.30;;;6.18;;
14052;SDS011;7101;51.600;7.310;2022-08-14T07:18:12;6.93;;;6.25;;
14052;SDS011;7101;51.600;7.310;2022-08-14T07:20:40;7.60;;;6.70;;
14052;SDS011;7101;51.600;7.310;2022-08-14T07:23:08;9.38;;;6.90;;
14052;SDS011;7101;51.600;7.310;2022-08-14T07:25:36;7.32;;;5.78;;
14052;SDS011;7101;51.600;7.310;2022-08-14T07:28:07;6.50;;;5.90;;
14052;SDS011;7101;51.600;7.310;2022-08-14T07:30:35;11.85;;;6.03;;
14052;SDS011;7101;51.600;7.310;2022-08-14T07:33:02;6.38;;;5.78;;
14052;SDS011;7101;51.600;7.310;2022-08-14T07:35:31;7.57;;;5.72;;
14052;SDS011;7101;51.600;7.310;2022-08-14T07:38:00;6.35;;;5.55;;
14052;SDS011;7101;51.600;7.310;2022-08-14T07:40:27;6.22;;;5.63;;
14052;SDS011;7101;51.600;7.310;2022-08-14T07:42:53;6.57;;;6.07;;
14052;SDS011;7101;51.600;7.310;2022-08-14T07:45:20;6.57;;;6.03;;
14052;SDS011;7101;51.600;7.310;2022-08-14T07:47:47;6.80;;;6.20;;
14052;SDS011;7101;51.600;7.310;2022-08-14T07:50:14;8.30;;;5.88;;
14052;SDS011;7101;51.600;7.310;2022-08-14T07:52:44;10.25;;;5.57;;
14052;SDS011;7101;51.600;7.310;2022-08-14T07:55:12;6.70;;;6.00;;
14052;SDS011;7101;51.600;7.310;2022-08-14T07:57:41;6.45;;;5.93;;
14052;SDS011;7101;51.600;7.310;2022-08-14T08:00:10;6.38;;;5.78;;
14052;SDS011;7101;51.600;7.310;2022-08-14T08:02:40;6.00;;;5.50;;
14052;SDS011;7101;51.600;7.310;2022-08-14T08:05:09;8.15;;;6.00;;
14052;SDS011;7101;51.600;7.310;2022-08-14T08:07:37;7.82;;;6.10;;
14052;SDS011;7101;51.600;7.310;2022-08-14T08:10:07;6.78;;;6.10;;
14052;SDS011;7101;51.600;7.310;2022-08-14T08:12:55;6.50;;;5.90;;
14052;SDS011;7101;51.600;7.310;2022-08-14T08:15:22;7.07;;;6.32;;
14052;SDS011;7101;51.600;7.310;2022-08-14T08:17:49;7.63;;;6.15;;
14052;SDS011;7101;51.600;7.310;2022-08-14T08:20:16;8.18;;;6.55;;
14052;SDS011;7101;51.600;7.310;2022-08-14T08:22:44;10.73;;;6.60;;
14052;SDS011;7101;51.600;7.310;2022-08-14T08:25:13;8.00;;;7.00;;
14052;SDS011;7101;51.600;7.310;2022-08-14T08:27:41;7.97;;;7.03;;
14052;SDS011;7101;51.600;7.310;2022-08-14T08:30:08;10.93;;;8.25;;
14052;SDS011;7101;51.600;7.310;2022-08-14T08:32:37;9.25;;;8.35;;
14052;SDS011;7101;51.600;7.310;2022-08-14T08:35:08;10.63;;;9.18;;
14052;SDS011;7101;51.600;7.310;2022-08-14T08:37:35;9.48;;;8.57;;
14052;SDS011;7101;51.600;7.310;2022-08-14T08:40:02;11.65;;;8.18;;
14052;SDS011;7101;51.600;7.310;2022-08-14T08:42:31;7.78;;;6.97;;
14052;SDS011;7101;51.600;7.310;2022-08-14T08:44:58;9.82;;;7.07;;
14052;SDS011;7101;51.600;7.310;2022-08-14T08:47:24;7.85;;;6.63;;
14052;SDS011;7101;51.600;7.310;2022-08-14T08:50:02;8.43;;;6.72;;
14052;SDS011;7101;51.600;7.310;2022-08-14T08:52:30;7.85;;;6.97;;
14052;SDS011;7101;51.600;7.310;2022-08-14T08:54:56;7.90;;;7.18;;
14052;SDS011;7101;51.600;7.310;2022-08-14T08:57:23;10.00;;;7.53;;
14052;SDS011;7101;51.600;7.310;2022-08-14T08:59:52;8.00;;;6.20;;
14052;SDS011;7101;51.600;7.310;2022-08-14T09:02:21;6.28;;;5.68;;
14052;SDS011;7101;51.600;7.310;2022-08-14T09:04:48;6.30;;;5.70;;
14052;SDS011;7101;51.600;7.310;2022-08-14T09:07:15;6.57;;;6.03;;
14052;SDS011;7101;51.600;7.310;2022-08-14T09:09:42;7.57;;;6.75;;
14052;SDS011;7101;51.600;7.310;2022-08-14T09:12:16;8.02;;;6.53;;
14052;SDS011;7101;51.600;7.310;2022-08-14T09:14:45;6.90;;;6.07;;
14052;SDS011;7101;51.600;7.310;2022-08-14T09:17:14;6.80;;;5.78;;
14052;SDS011;7101;51.600;7.310;2022-08-14T09:19:41;6.63;;;5.93;;
14052;SDS011;7101;51.600;7.310;2022-08-14T09:22:08;6.90;;;6.30;;
14052;SDS011;7101;51.600;7.310;2022-08-14T09:24:37;8.07;;;5.65;;
14052;SDS011;7101;51.600;7.310;2022-08-14T09:27:05;16.15;;;7.05;;
14052;SDS011;7101;51.600;7.310;2022-08-14T09:29:32;8.63;;;5.72;;
14052;SDS011;7101;51.600;7.310;2022-08-14T09:31:59;8.43;;;5.97;;
14052;SDS011;7101;51.600;7.310;2022-08-14T09:34:35;6.63;;;6.00;;
14052;SDS011;7101;51.600;7.310;2022-08-14T09:37:17;8.10;;;5.15;;
14052;SDS011;7101;51.600;7.310;2022-08-14T09:39:59;7.88;;;5.43;;
14052;SDS011;7101;51.600;7.310;2022-08-14T09:42:34;6.68;;;5.45;;
14052;SDS011;7101;51.600;7.310;2022-08-14T09:45:14;5.38;;;4.88;;
14052;SDS011;7101;51.600;7.310;2022-08-14T09:47:43;5.65;;;5.15;;
14052;SDS011;7101;51.600;7.310;2022-08-14T09:50:17;7.55;;;5.70;;
14052;SDS011;7101;51.600;7.310;2022-08-14T09:52:47;7.25;;;5.75;;
14052;SDS011;7101;51.600;7.310;2022-08-14T09:55:17;5.85;;;5.22;;
14052;SDS011;7101;51.600;7.310;2022-08-14T09:57:45;7.18;;;5.45;;
14052;SDS011;7101;51.600;7.310;2022-08-14T10:00:15;6.93;;;6.18;;
14052;SDS011;7101;51.600;7.310;2022-08-14T10:02:53;7.18;;;5.38;;
14052;SDS011;7101;51.600;7.310;2022-08-14T10:05:29;6.10;;;5.50;;
14052;SDS011;7101;51.600;7.310;2022-08-14T10:07:59;6.43;;;5.25;;
14052;SDS011;7101;51.600;7.310;2022-08-14T10:10:28;7.53;;;5.68;;
14052;SDS011;7101;51.600;7.310;2022-08-14T10:12:58;5.88;;;5.07;;
14052;SDS011;7101;51.600;7.310;2022-08-14T10:15:27;6.00;;;5.50;;
14052;SDS011;7101;51.600;7.310;2022-08-14T10:18:02;6.38;;;5.78;;
14052;SDS011;7101;51.600;7.310;2022-08-14T10:20:35;6.70;;;6.05;;
14052;SDS011;7101;51.600;7.310;2022-08-14T10:23:12;7.30;;;5.93;;
14052;SDS011;7101;51.600;7.310;2022-08-14T10:25:42;5.60;;;5.10;;
14052;SDS011;7101;51.600;7.310;2022-08-14T10:28:10;5.40;;;4.90;;
14052;SDS011;7101;51.600;7.310;2022-08-14T10:30:40;6.30;;;5.18;;
14052;SDS011;7101;51.600;7.310;2022-08-14T10:33:22;5.30;;;4.80;;
14052;SDS011;7101;51.600;7.310;2022-08-14T10:35:51;5.72;;;5.20;;
14052;SDS011;7101;51.600;7.310;2022-08-14T10:38:25;6.35;;;5.50;;
14052;SDS011;7101;51.600;7.310;2022-08-14T10:40:52;7.68;;;5.00;;
14052;SDS011;7101;51.600;7.310;2022-08-14T10:43:20;4.97;;;4.57;;
14052;SDS011;7101;51.600;7.310;2022-08-14T10:45:58;6.00;;;4.63;;
14052;SDS011;7101;51.600;7.310;2022-08-14T10:48:27;5.57;;;5.07;;
14052;SDS011;7101;51.600;7.310;2022-08-14T10:50:55;6.45;;;4.60;;
14052;SDS011;7101;51.600;7.310;2022-08-14T10:53:28;5.40;;;4.90;;
14052;SDS011;7101;51.600;7.310;2022-08-14T10:55:57;5.30;;;4.78;;
14052;SDS011;7101;51.600;7.310;2022-08-14T10:58:28;5.53;;;5.00;;
14052;SDS011;7101;51.600;7.310;2022-08-14T11:00:57;6.70;;;4.50;;
14052;SDS011;7101;51.600;7.310;2022-08-14T11:03:38;6.88;;;4.13;;
14052;SDS011;7101;51.600;7.310;2022-08-14T11:06:15;4.60;;;4.20;;
14052;SDS011;7101;51.600;7.310;2022-08-14T11:08:45;4.80;;;4.40;;
14052;SDS011;7101;51.600;7.310;2022-08-14T11:11:13;6.30;;;4.40;;
14052;SDS011;7101;51.600;7.310;2022-08-14T11:13:42;5.05;;;4.25;;
14052;SDS011;7101;51.600;7.310;2022-08-14T11:16:11;4.45;;;4.03;;
14052;SDS011;7101;51.600;7.310;2022-08-14T11:18:42;5.15;;;4.15;;
14052;SDS011;7101;51.600;7.310;2022-08-14T11:21:13;4.70;;;4.25;;
14052;SDS011;7101;51.600;7.310;2022-08-14T11:23:47;4.53;;;4.13;;
14052;SDS011;7101;51.600;7.310;2022-08-14T11:26:15;4.85;;;4.45;;
14052;SDS011;7101;51.600;7.310;2022-08-14T11:28:44;5.68;;;4.00;;
14052;SDS011;7101;51.600;7.310;2022-08-14T11:31:14;4.15;;;3.85;;
14052;SDS011;7101;51.600;7.310;2022-08-14T11:33:43;4.60;;;4.20;;
14052;SDS011;7101;51.600;7.310;2022-08-14T11:36:16;4.72;;;4.28;;
14052;SDS011;7101;51.600;7.310;2022-08-14T11:38:48;4.55;;;4.18;;
14052;SDS011;7101;51.600;7.310;2022-08-14T11:41:14;7.13;;;4.45;;
14052;SDS011;7101;51.600;7.310;2022-08-14T11:43:42;4.63;;;4.20;;
14052;SDS011;7101;51.600;7.310;2022-08-14T11:46:10;5.00;;;4.35;;
14052;SDS011;7101;51.600;7.310;2022-08-14T11:48:44;4.97;;;4.35;;
14052;SDS011;7101;51.600;7.310;2022-08-14T11:51:12;4.95;;;4.55;;
14052;SDS011;7101;51.600;7.310;2022-08-14T11:53:49;5.28;;;4.47;;
14052;SDS011;7101;51.600;7.310;2022-08-14T11:56:18;5.97;;;4.47;;
14052;SDS011;7101;51.600;7.310;2022-08-14T11:58:48;4.63;;;4.22;;
14052;SDS011;7101;51.600;7.310;2022-08-14T12:01:16;4.88;;;4.47;;
14052;SDS011;7101;51.600;7.310;2022-08-14T12:03:51;4.65;;;4.18;;
14052;SDS011;7101;51.600;7.310;2022-08-14T12:06:18;4.80;;;4.30;;
14052;SDS011;7101;51.600;7.310;2022-08-14T12:08:46;6.00;;;4.22;;
14052;SDS011;7101;51.600;7.310;2022-08-14T12:11:16;4.80;;;4.40;;
14052;SDS011;7101;51.600;7.310;2022-08-14T12:13:43;5.65;;;4.18;;
14052;SDS011;7101;51.600;7.310;2022-08-14T12:16:10;5.20;;;4.57;;
14052;SDS011;7101;51.600;7.310;2022-08-14T12:18:40;6.72;;;4.40;;
14052;SDS011;7101;51.600;7.310;2022-08-14T12:21:09;5.05;;;4.00;;
14052;SDS011;7101;51.600;7.310;2022-08-14T12:23:37;5.18;;;4.40;;
14052;SDS011;7101;51.600;7.310;2022-08-14T12:26:05;4.68;;;4.20;;
14052;SDS011;7101;51.600;7.310;2022-08-14T12:28:35;5.50;;;4.28;;
14052;SDS011;7101;51.600;7.310;2022-08-14T12:31:10;4.50;;;4.10;;
14052;SDS011;7101;51.600;7.310;2022-08-14T12:33:41;6.28;;;4.30;;
14052;SDS011;7101;51.600;7.310;2022-08-14T12:36:19;4.40;;;4.00;;
14052;SDS011;7101;51.600;7.310;2022-08-14T12:38:46;4.53;;;4.00;;
14052;SDS011;7101;51.600;7.310;2022-08-14T12:41:15;5.10;;;4.65;;
14052;SDS011;7101;51.600;7.310;2022-08-14T12:43:46;8.07;;;4.50;;
14052;SDS011;7101;51.600;7.310;2022-08-14T12:46:25;5.03;;;4.28;;
14052;SDS011;7101;51.600;7.310;2022-08-14T12:48:55;4.57;;;4.20;;
14052;SDS011;7101;51.600;7.310;2022-08-14T12:51:24;7.00;;;4.45;;
14052;SDS011;7101;51.600;7.310;2022-08-14T12:53:52;4.68;;;4.28;;
14052;SDS011;7101;51.600;7.310;2022-08-14T12:56:20;5.47;;;4.20;;
14052;SDS011;7101;51.600;7.310;2022-08-14T12:58:51;4.88;;;4.00;;
14052;SDS011;7101;51.600;7.310;2022-08-14T13:01:20;4.40;;;4.00;;
14052;SDS011;7101;51.600;7.310;2022-08-14T13:03:48;4.60;;;4.20;;
14052;SDS011;7101;51.600;7.310;2022-08-14T13:06:16;4.63;;;4.22;;
14052;SDS011;7101;51.600;7.310;2022-08-14T13:08:44;6.85;;;4.65;;
14052;SDS011;7101;51.600;7.310;2022-08-14T13:11:12;5.88;;;4.25;;
14052;SDS011;7101;51.600;7.310;2022-08-14T13:13:40;8.35;;;4.20;;
14052;SDS011;7101;51.600;7.310;2022-08-14T13:16:10;4.40;;;4.00;;
14052;SDS011;7101;51.600;7.310;2022-08-14T13:18:41;4.85;;;4.43;;
14052;SDS011;7101;51.600;7.310;2022-08-14T13:21:10;5.70;;;4.60;;
14052;SDS011;7101;51.600;7.310;2022-08-14T13:23:39;5.07;;;4.57;;
14052;SDS011;7101;51.600;7.310;2022-08-14T13:26:08;7.10;;;4.20;;
14052;SDS011;7101;51.600;7.310;2022-08-14T13:28:37;5.25;;;4.25;;
14052;SDS011;7101;51.600;7.310;2022-08-14T13:31:07;6.10;;;4.25;;
14052;SDS011;7101;51.600;7.310;2022-08-14T13:33:39;5.20;;;4.25;;
14052;SDS011;7101;51.600;7.310;2022-08-14T13:36:07;4.90;;;4.40;;
14052;SDS011;7101;51.600;7.310;2022-08-14T13:38:35;4.97;;;4.57;;
14052;SDS011;7101;51.600;7.310;2022-08-14T13:41:02;4.93;;;4.53;;
14052;SDS011;7101;51.600;7.310;2022-08-14T13:43:30;5.30;;;4.45;;
14052;SDS011;7101;51.600;7.310;2022-08-14T13:45:57;4.40;;;4.00;;
14052;SDS011;7101;51.600;7.310;2022-08-14T13:48:25;4.97;;;4.35;;
14052;SDS011;7101;51.600;7.310;2022-08-14T13:50:54;6.05;;;4.20;;
14052;SDS011;7101;51.600;7.310;2022-08-14T13:53:23;4.38;;;4.00;;
14052;SDS011;7101;51.600;7.310;2022-08-14T13:55:52;5.03;;;4.30;;
14052;SDS011;7101;51.600;7.310;2022-08-14T13:58:20;4.30;;;3.83;;
14052;SDS011;7101;51.600;7.310;2022-08-14T14:00:49;4.95;;;4.45;;
14052;SDS011;7101;51.600;7.310;2022-08-14T14:03:18;4.95;;;4.20;;
14052;SDS011;7101;51.600;7.310;2022-08-14T14:05:47;5.93;;;4.10;;
14052;SDS011;7101;51.600;7.310;2022-08-14T14:08:17;4.15;;;3.78;;
14052;SDS011;7101;51.600;7.310;2022-08-14T14:10:45;4.90;;;4.38;;
14052;SDS011;7101;51.600;7.310;2022-08-14T14:13:13;4.07;;;3.65;;
14052;SDS011;7101;51.600;7.310;2022-08-14T14:15:42;3.95;;;3.65;;
14052;SDS011;7101;51.600;7.310;2022-08-14T14:18:09;4.05;;;3.65;;
14052;SDS011;7101;51.600;7.310;2022-08-14T14:20:37;4.40;;;4.00;;
14052;SDS011;7101;51.600;7.310;2022-08-14T14:23:08;4.65;;;4.25;;
14052;SDS011;7101;51.600;7.310;2022-08-14T14:25:40;9.80;;;3.78;;
14052;SDS011;7101;51.600;7.310;2022-08-14T14:28:10;4.55;;;3.70;;
14052;SDS011;7101;51.600;7.310;2022-08-14T14:30:39;5.03;;;3.70;;
14052;SDS011;7101;51.600;7.310;2022-08-14T14:33:11;5.68;;;3.90;;
14052;SDS011;7101;51.600;7.310;2022-08-14T14:35:40;5.45;;;3.63;;
14052;SDS011;7101;51.600;7.310;2022-08-14T14:38:12;3.92;;;3.63;;
14052;SDS011;7101;51.600;7.310;2022-08-14T14:40:43;4.47;;;3.92;;
14052;SDS011;7101;51.600;7.310;2022-08-14T14:43:12;4.05;;;3.75;;
14052;SDS011;7101;51.600;7.310;2022-08-14T14:45:41;3.72;;;3.35;;
14052;SDS011;7101;51.600;7.310;2022-08-14T14:48:11;4.00;;;3.60;;
14052;SDS011;7101;51.600;7.310;2022-08-14T14:50:37;3.97;;;3.50;;
14052;SDS011;7101;51.600;7.310;2022-08-14T14:53:04;4.03;;;3.72;;
14052;SDS011;7101;51.600;7.310;2022-08-14T14:55:33;3.75;;;3.45;;
14052;SDS011;7101;51.600;7.310;2022-08-14T14:58:01;3.95;;;3.65;;
14052;SDS011;7101;51.600;7.310;2022-08-14T15:00:28;4.10;;;3.80;;
14052;SDS011;7101;51.600;7.310;2022-08-14T15:02:55;4.55;;;3.35;;
14052;SDS011;7101;51.600;7.310;2022-08-14T15:05:22;3.72;;;3.42;;
14052;SDS011;7101;51.600;7.310;2022-08-14T15:07:50;4.95;;;3.85;;
14052;SDS011;7101;51.600;7.310;2022-08-14T15:10:18;4.35;;;3.80;;